sensor_id;sensor_type;location;lat;lon;timestamp;temperature;humidity
41481;DHT22;27217;51.220;5.308;2022-09-09T06:07:07;15.30;99.90
41481;DHT22;27217;51.220;5.308;2022-09-09T06:13:14;15.30;99.90
41481;DHT22;27217;51.220;5.308;2022-09-09T06:22:43;15.30;99.90
41481;DHT22;27217;51.220;5.308;2022-09-09T06:28:36;15.40;99.90
41481;DHT22;27217;51.220;5.308;2022-09-09T06:31:07;15.40;99.90
41481;DHT22;27217;51.220;5.308;2022-09-09T06:40:01;15.50;99.90
41481;DHT22;27217;51.220;5.308;2022-09-09T06:45:53;15.80;99.90
41481;DHT22;27217;51.220;5.308;2022-09-09T06:51:41;15.90;99.90
41481;DHT22;27217;51.220;5.308;2022-09-09T06:54:13;16.10;99.90
41481;DHT22;27217;51.220;5.308;2022-09-09T06:56:40;16.10;99.90
41481;DHT22;27217;51.220;5.308;2022-09-09T07:02:30;16.30;99.90
41481;DHT22;27217;51.220;5.308;2022-09-09T07:11:55;16.40;99.90
41481;DHT22;27217;51.220;5.308;2022-09-09T07:17:46;16.70;99.90
41481;DHT22;27217;51.220;5.308;2022-09-09T07:23:38;16.80;99.90
41481;DHT22;27217;51.220;5.308;2022-09-09T07:29:35;16.90;99.90
41481;DHT22;27217;51.220;5.308;2022-09-09T07:32:01;16.90;99.90
41481;DHT22;27217;51.220;5.308;2022-09-09T07:37:51;17.20;99.90
41481;DHT22;27217;51.220;5.308;2022-09-09T07:43:39;17.50;99.90
41481;DHT22;27217;51.220;5.308;2022-09-09T07:49:27;17.50;99.90
41481;DHT22;27217;51.220;5.308;2022-09-09T07:55:21;17.50;99.90
41481;DHT22;27217;51.220;5.308;2022-09-09T08:01:18;17.80;99.90
41481;DHT22;27217;51.220;5.308;2022-09-09T08:07:06;17.80;99.90
41481;DHT22;27217;51.220;5.308;2022-09-09T08:12:54;18.30;99.90
41481;DHT22;27217;51.220;5.308;2022-09-09T08:15:24;18.40;99.90
41481;DHT22;27217;51.220;5.308;2022-09-09T08:21:14;17.50;99.90
41481;DHT22;27217;51.220;5.308;2022-09-09T08:27:06;17.30;99.90
41481;DHT22;27217;51.220;5.308;2022-09-09T08:32:57;17.50;99.90
41481;DHT22;27217;51.220;5.308;2022-09-09T08:38:48;17.90;99.90
41481;DHT22;27217;51.220;5.308;2022-09-09T08:47:20;18.10;99.90
41481;DHT22;27217;51.220;5.308;2022-09-09T08:50:37;18.20;99.90
41481;DHT22;27217;51.220;5.308;2022-09-09T08:56:31;18.00;99.90
41481;DHT22;27217;51.220;5.308;2022-09-09T08:59:00;18.00;99.90
41481;DHT22;27217;51.220;5.308;2022-09-09T09:08:51;17.70;99.90
41481;DHT22;27217;51.220;5.308;2022-09-09T09:18:03;17.80;99.90
41481;DHT22;27217;51.220;5.308;2022-09-09T09:33:59;18.10;99.90
41481;DHT22;27217;51.220;5.308;2022-09-09T09:45:32;18.10;99.90
41481;DHT22;27217;51.220;5.308;2022-09-09T09:51:20;17.60;99.90
41481;DHT22;27217;51.220;5.308;2022-09-09T09:57:15;17.70;99.90
41481;DHT22;27217;51.220;5.308;2022-09-09T10:02:49;17.20;99.90
41481;DHT22;27217;51.220;5.308;2022-09-09T10:08:54;16.40;99.90
41481;DHT22;27217;51.220;5.308;2022-09-09T10:21:28;16.20;99.90
41481;DHT22;27217;51.220;5.308;2022-09-09T10:36:40;16.30;99.90
41481;DHT22;27217;51.220;5.308;2022-09-09T10:42:31;16.40;99.90
41481;DHT22;27217;51.220;5.308;2022-09-09T10:57:48;16.80;99.90
41481;DHT22;27217;51.220;5.308;2022-09-09T11:03:39;17.10;99.90
41481;DHT22;27217;51.220;5.308;2022-09-09T11:06:12;17.40;99.90
41481;DHT22;27217;51.220;5.308;2022-09-09T11:12:01;17.50;99.90
41481;DHT22;27217;51.220;5.308;2022-09-09T11:24:23;17.00;99.90
41481;DHT22;27217;51.220;5.308;2022-09-09T11:45:43;18.60;99.90
41481;DHT22;27217;51.220;5.308;2022-09-09T11:48:36;18.50;99.90
41481;DHT22;27217;51.220;5.308;2022-09-09T11:58:23;18.90;99.90
41481;DHT22;27217;51.220;5.308;2022-09-09T12:00:49;18.60;99.90
41481;DHT22;27217;51.220;5.308;2022-09-09T12:12:44;19.60;99.90
41481;DHT22;27217;51.220;5.308;2022-09-09T12:26:53;22.20;99.90
41481;DHT22;27217;51.220;5.308;2022-09-09T12:32:44;21.20;99.90
41481;DHT22;27217;51.220;5.308;2022-09-09T12:35:23;20.80;99.90
41481;DHT22;27217;51.220;5.308;2022-09-09T12:41:21;20.70;99.90
41481;DHT22;27217;51.220;5.308;2022-09-09T12:47:11;19.70;99.90
41481;DHT22;27217;51.220;5.308;2022-09-09T12:53:06;19.10;99.90
41481;DHT22;27217;51.220;5.308;2022-09-09T12:58:52;19.80;99.90
41481;DHT22;27217;51.220;5.308;2022-09-09T13:05:36;21.60;99.90
41481;DHT22;27217;51.220;5.308;2022-09-09T13:08:08;20.90;99.90
41481;DHT22;27217;51.220;5.308;2022-09-09T13:13:58;19.90;99.90
41481;DHT22;27217;51.220;5.308;2022-09-09T13:19:45;22.10;99.90
41481;DHT22;27217;51.220;5.308;2022-09-09T13:25:36;20.80;99.90
41481;DHT22;27217;51.220;5.308;2022-09-09T13:32:06;19.90;99.90
41481;DHT22;27217;51.220;5.308;2022-09-09T13:34:35;20.40;99.90
41481;DHT22;27217;51.220;5.308;2022-09-09T13:40:25;20.90;99.90
41481;DHT22;27217;51.220;5.308;2022-09-09T13:49:29;23.70;99.90
41481;DHT22;27217;51.220;5.308;2022-09-09T13:55:18;24.80;99.90
41481;DHT22;27217;51.220;5.308;2022-09-09T14:01:09;22.50;99.90
41481;DHT22;27217;51.220;5.308;2022-09-09T14:04:08;21.90;99.90
41481;DHT22;27217;51.220;5.308;2022-09-09T14:09:57;20.20;99.90
41481;DHT22;27217;51.220;5.308;2022-09-09T14:12:25;20.50;99.90
41481;DHT22;27217;51.220;5.308;2022-09-09T14:14:51;20.60;99.90
41481;DHT22;27217;51.220;5.308;2022-09-09T14:17:17;21.00;99.90
41481;DHT22;27217;51.220;5.308;2022-09-09T14:19:43;21.10;99.90
41481;DHT22;27217;51.220;5.308;2022-09-09T14:22:11;21.00;99.90
41481;DHT22;27217;51.220;5.308;2022-09-09T14:24:37;20.90;99.90
41481;DHT22;27217;51.220;5.308;2022-09-09T14:27:03;21.10;99.90
41481;DHT22;27217;51.220;5.308;2022-09-09T14:29:28;20.90;99.90
41481;DHT22;27217;51.220;5.308;2022-09-09T14:31:54;21.00;99.90
41481;DHT22;27217;51.220;5.308;2022-09-09T14:34:20;20.80;99.90
41481;DHT22;27217;51.220;5.308;2022-09-09T14:36:46;21.20;99.90
41481;DHT22;27217;51.220;5.308;2022-09-09T14:39:12;21.20;99.90
41481;DHT22;27217;51.220;5.308;2022-09-09T14:41:38;21.70;99.90
41481;DHT22;27217;51.220;5.308;2022-09-09T14:44:04;22.60;99.90
41481;DHT22;27217;51.220;5.308;2022-09-09T14:46:29;24.30;99.90
41481;DHT22;27217;51.220;5.308;2022-09-09T14:48:56;24.50;99.90
41481;DHT22;27217;51.220;5.308;2022-09-09T14:51:24;23.60;99.90
41481;DHT22;27217;51.220;5.308;2022-09-09T14:53:55;22.70;99.90
41481;DHT22;27217;51.220;5.308;2022-09-09T14:56:24;22.10;99.90
41481;DHT22;27217;51.220;5.308;2022-09-09T14:58:56;21.70;99.90
41481;DHT22;27217;51.220;5.308;2022-09-09T15:01:22;20.90;99.90
41481;DHT22;27217;51.220;5.308;2022-09-09T15:03:53;20.40;99.90
41481;DHT22;27217;51.220;5.308;2022-09-09T15:06:20;20.00;99.90
41481;DHT22;27217;51.220;5.308;2022-09-09T15:08:46;19.80;99.90
41481;DHT22;27217;51.220;5.308;2022-09-09T15:11:14;19.90;99.90
41481;DHT22;27217;51.220;5.308;2022-09-09T15:13:42;20.30;99.90
41481;DHT22;27217;51.220;5.308;2022-09-09T15:16:15;20.70;99.90
41481;DHT22;27217;51.220;5.308;2022-09-09T15:18:42;20.60;99.90
41481;DHT22;27217;51.220;5.308;2022-09-09T15:21:11;20.40;99.90
41481;DHT22;27217;51.220;5.308;2022-09-09T15:23:38;20.50;99.90
41481;DHT22;27217;51.220;5.308;2022-09-09T15:26:05;20.70;99.90
41481;DHT22;27217;51.220;5.308;2022-09-09T15:28:33;20.40;99.90
41481;DHT22;27217;51.220;5.308;2022-09-09T15:31:11;20.20;99.90
41481;DHT22;27217;51.220;5.308;2022-09-09T15:33:40;19.90;99.90
41481;DHT22;27217;51.220;5.308;2022-09-09T15:36:22;20.10;99.90
41481;DHT22;27217;51.220;5.308;2022-09-09T15:38:49;20.40;99.90
41481;DHT22;27217;51.220;5.308;2022-09-09T15:41:17;21.80;99.90
41481;DHT22;27217;51.220;5.308;2022-09-09T15:43:47;22.60;99.90
41481;DHT22;27217;51.220;5.308;2022-09-09T15:48:44;22.50;99.90
41481;DHT22;27217;51.220;5.308;2022-09-09T15:51:10;21.70;99.90
41481;DHT22;27217;51.220;5.308;2022-09-09T15:53:37;21.30;99.90
41481;DHT22;27217;51.220;5.308;2022-09-09T15:56:05;21.30;99.90
41481;DHT22;27217;51.220;5.308;2022-09-09T15:58:35;20.70;99.90
41481;DHT22;27217;51.220;5.308;2022-09-09T16:01:06;20.70;99.90
41481;DHT22;27217;51.220;5.308;2022-09-09T16:03:40;20.90;99.90
41481;DHT22;27217;51.220;5.308;2022-09-09T16:06:08;20.60;99.90
41481;DHT22;27217;51.220;5.308;2022-09-09T16:08:40;20.50;99.90
41481;DHT22;27217;51.220;5.308;2022-09-09T16:11:14;20.10;99.90
41481;DHT22;27217;51.220;5.308;2022-09-09T16:13:45;20.20;99.90
41481;DHT22;27217;51.220;5.308;2022-09-09T16:16:12;19.80;99.90
41481;DHT22;27217;51.220;5.308;2022-09-09T16:18:40;19.90;99.90
41481;DHT22;27217;51.220;5.308;2022-09-09T16:21:08;19.60;99.90
41481;DHT22;27217;51.220;5.308;2022-09-09T16:23:38;19.70;99.90
41481;DHT22;27217;51.220;5.308;2022-09-09T16:26:04;19.70;99.90
41481;DHT22;27217;51.220;5.308;2022-09-09T16:28:30;19.50;99.90
41481;DHT22;27217;51.220;5.308;2022-09-09T16:30:56;19.10;99.90
41481;DHT22;27217;51.220;5.308;2022-09-09T16:33:23;18.80;99.90
41481;DHT22;27217;51.220;5.308;2022-09-09T16:35:51;18.70;99.90
41481;DHT22;27217;51.220;5.308;2022-09-09T16:38:17;18.50;99.90
41481;DHT22;27217;51.220;5.308;2022-09-09T16:40:43;17.80;99.90
41481;DHT22;27217;51.220;5.308;2022-09-09T16:43:09;17.50;99.90
41481;DHT22;27217;51.220;5.308;2022-09-09T16:45:45;17.60;99.90
41481;DHT22;27217;51.220;5.308;2022-09-09T16:48:11;16.90;99.90
41481;DHT22;27217;51.220;5.308;2022-09-09T16:50:37;16.50;99.90
41481;DHT22;27217;51.220;5.308;2022-09-09T16:53:04;16.60;99.90
41481;DHT22;27217;51.220;5.308;2022-09-09T16:55:32;16.70;99.90
41481;DHT22;27217;51.220;5.308;2022-09-09T16:57:58;16.60;99.90
41481;DHT22;27217;51.220;5.308;2022-09-09T17:00:23;16.50;99.90
41481;DHT22;27217;51.220;5.308;2022-09-09T17:02:49;16.40;99.90
41481;DHT22;27217;51.220;5.308;2022-09-09T17:05:14;16.40;99.90
41481;DHT22;27217;51.220;5.308;2022-09-09T17:07:41;16.30;99.90
41481;DHT22;27217;51.220;5.308;2022-09-09T17:10:07;16.30;99.90
41481;DHT22;27217;51.220;5.308;2022-09-09T17:12:33;16.40;99.90
41481;DHT22;27217;51.220;5.308;2022-09-09T17:15:01;16.60;99.90
41481;DHT22;27217;51.220;5.308;2022-09-09T17:17:28;16.70;99.90
41481;DHT22;27217;51.220;5.308;2022-09-09T17:19:54;16.60;99.90
41481;DHT22;27217;51.220;5.308;2022-09-09T17:22:20;16.50;99.90
41481;DHT22;27217;51.220;5.308;2022-09-09T17:24:46;16.40;99.90
41481;DHT22;27217;51.220;5.308;2022-09-09T17:27:13;16.20;99.90
41481;DHT22;27217;51.220;5.308;2022-09-09T17:29:39;16.20;99.90
41481;DHT22;27217;51.220;5.308;2022-09-09T17:32:06;16.30;99.90
41481;DHT22;27217;51.220;5.308;2022-09-09T17:34:36;16.50;99.90
41481;DHT22;27217;51.220;5.308;2022-09-09T17:37:02;16.70;99.90
41481;DHT22;27217;51.220;5.308;2022-09-09T17:39:28;16.70;99.90
41481;DHT22;27217;51.220;5.308;2022-09-09T17:41:54;16.50;99.90
41481;DHT22;27217;51.220;5.308;2022-09-09T17:44:20;16.40;99.90
41481;DHT22;27217;51.220;5.308;2022-09-09T17:46:46;16.40;99.90
41481;DHT22;27217;51.220;5.308;2022-09-09T17:49:14;16.40;99.90
41481;DHT22;27217;51.220;5.308;2022-09-09T17:51:42;16.30;99.90
41481;DHT22;27217;51.220;5.308;2022-09-09T17:54:15;16.30;99.90
41481;DHT22;27217;51.220;5.308;2022-09-09T17:56:42;15.80;99.90
41481;DHT22;27217;51.220;5.308;2022-09-09T17:59:14;16.10;99.90
41481;DHT22;27217;51.220;5.308;2022-09-09T18:01:42;16.10;99.90
41481;DHT22;27217;51.220;5.308;2022-09-09T18:04:10;16.10;99.90
41481;DHT22;27217;51.220;5.308;2022-09-09T18:06:43;16.10;99.90
41481;DHT22;27217;51.220;5.308;2022-09-09T18:09:12;16.10;99.90
41481;DHT22;27217;51.220;5.308;2022-09-09T18:11:50;16.40;99.90
41481;DHT22;27217;51.220;5.308;2022-09-09T18:14:21;16.30;99.90
41481;DHT22;27217;51.220;5.308;2022-09-09T18:16:47;16.20;99.90
41481;DHT22;27217;51.220;5.308;2022-09-09T18:19:16;16.00;99.90
41481;DHT22;27217;51.220;5.308;2022-09-09T18:21:42;16.00;99.90
41481;DHT22;27217;51.220;5.308;2022-09-09T18:24:10;16.10;99.90
41481;DHT22;27217;51.220;5.308;2022-09-09T18:26:37;16.00;99.90
41481;DHT22;27217;51.220;5.308;2022-09-09T18:29:06;16.10;99.90
41481;DHT22;27217;51.220;5.308;2022-09-09T18:31:34;16.20;99.90
41481;DHT22;27217;51.220;5.308;2022-09-09T18:34:01;16.30;99.90
41481;DHT22;27217;51.220;5.308;2022-09-09T18:36:36;16.40;99.90
41481;DHT22;27217;51.220;5.308;2022-09-09T18:39:03;16.10;99.90
41481;DHT22;27217;51.220;5.308;2022-09-09T18:41:36;15.90;99.90
41481;DHT22;27217;51.220;5.308;2022-09-09T18:44:05;15.90;99.90
41481;DHT22;27217;51.220;5.308;2022-09-09T18:46:35;16.00;99.90
41481;DHT22;27217;51.220;5.308;2022-09-09T18:49:03;16.20;99.90
41481;DHT22;27217;51.220;5.308;2022-09-09T18:51:29;16.10;99.90
41481;DHT22;27217;51.220;5.308;2022-09-09T18:54:01;16.30;99.90
41481;DHT22;27217;51.220;5.308;2022-09-09T18:56:28;16.20;99.90
41481;DHT22;27217;51.220;5.308;2022-09-09T18:58:57;16.20;99.90
41481;DHT22;27217;51.220;5.308;2022-09-09T19:01:23;16.20;99.90
41481;DHT22;27217;51.220;5.308;2022-09-09T19:03:50;16.40;99.90
41481;DHT22;27217;51.220;5.308;2022-09-09T19:06:20;16.40;99.90
41481;DHT22;27217;51.220;5.308;2022-09-09T19:08:48;16.30;99.90
41481;DHT22;27217;51.220;5.308;2022-09-09T19:11:17;16.50;99.90
41481;DHT22;27217;51.220;5.308;2022-09-09T19:16:39;16.20;99.90
41481;DHT22;27217;51.220;5.308;2022-09-09T19:19:21;16.00;99.90
41481;DHT22;27217;51.220;5.308;2022-09-09T19:21:48;16.10;99.90
41481;DHT22;27217;51.220;5.308;2022-09-09T19:24:20;16.30;99.90
41481;DHT22;27217;51.220;5.308;2022-09-09T19:26:52;16.20;99.90
41481;DHT22;27217;51.220;5.308;2022-09-09T19:29:21;16.40;99.90
41481;DHT22;27217;51.220;5.308;2022-09-09T19:31:47;16.20;99.90
41481;DHT22;27217;51.220;5.308;2022-09-09T19:34:14;16.20;99.90
41481;DHT22;27217;51.220;5.308;2022-09-09T19:36:41;16.20;99.90
41481;DHT22;27217;51.220;5.308;2022-09-09T19:39:09;16.20;99.90
41481;DHT22;27217;51.220;5.308;2022-09-09T19:41:35;16.30;99.90
41481;DHT22;27217;51.220;5.308;2022-09-09T19:44:03;16.40;99.90
41481;DHT22;27217;51.220;5.308;2022-09-09T19:46:35;16.10;99.90
41481;DHT22;27217;51.220;5.308;2022-09-09T19:49:02;15.90;99.90
41481;DHT22;27217;51.220;5.308;2022-09-09T19:51:30;15.90;99.90
41481;DHT22;27217;51.220;5.308;2022-09-09T19:54:01;16.00;99.90
41481;DHT22;27217;51.220;5.308;2022-09-09T19:56:28;15.90;99.90
41481;DHT22;27217;51.220;5.308;2022-09-09T19:58:54;15.70;99.90
41481;DHT22;27217;51.220;5.308;2022-09-09T20:01:25;15.70;99.90
41481;DHT22;27217;51.220;5.308;2022-09-09T20:03:53;15.80;99.90
41481;DHT22;27217;51.220;5.308;2022-09-09T20:06:21;15.90;99.90
41481;DHT22;27217;51.220;5.308;2022-09-09T20:08:55;15.80;99.90
41481;DHT22;27217;51.220;5.308;2022-09-09T20:11:22;15.90;99.90
41481;DHT22;27217;51.220;5.308;2022-09-09T20:13:48;16.10;99.90
41481;DHT22;27217;51.220;5.308;2022-09-09T20:16:18;16.20;99.90
41481;DHT22;27217;51.220;5.308;2022-09-09T20:18:47;16.10;99.90
41481;DHT22;27217;51.220;5.308;2022-09-09T20:21:17;15.90;99.90
41481;DHT22;27217;51.220;5.308;2022-09-09T20:23:45;16.10;99.90
41481;DHT22;27217;51.220;5.308;2022-09-09T20:26:13;16.00;99.90
41481;DHT22;27217;51.220;5.308;2022-09-09T20:28:42;16.00;99.90
41481;DHT22;27217;51.220;5.308;2022-09-09T20:31:13;16.00;99.90
41481;DHT22;27217;51.220;5.308;2022-09-09T20:33:40;16.20;99.90
41481;DHT22;27217;51.220;5.308;2022-09-09T20:36:10;16.40;99.90
41481;DHT22;27217;51.220;5.308;2022-09-09T20:38:42;16.40;99.90
41481;DHT22;27217;51.220;5.308;2022-09-09T20:41:08;16.30;99.90
41481;DHT22;27217;51.220;5.308;2022-09-09T20:43:39;16.50;99.90
41481;DHT22;27217;51.220;5.308;2022-09-09T20:46:04;16.30;99.90
41481;DHT22;27217;51.220;5.308;2022-09-09T20:48:32;16.00;99.90
41481;DHT22;27217;51.220;5.308;2022-09-09T20:51:05;16.00;99.90
41481;DHT22;27217;51.220;5.308;2022-09-09T20:53:32;16.00;99.90
41481;DHT22;27217;51.220;5.308;2022-09-09T20:55:59;16.10;99.90
41481;DHT22;27217;51.220;5.308;2022-09-09T20:58:25;16.10;99.90
41481;DHT22;27217;51.220;5.308;2022-09-09T21:00:51;16.10;99.90
41481;DHT22;27217;51.220;5.308;2022-09-09T21:03:18;15.80;99.90
41481;DHT22;27217;51.220;5.308;2022-09-09T21:05:44;15.90;99.90
41481;DHT22;27217;51.220;5.308;2022-09-09T21:08:10;15.80;99.90
41481;DHT22;27217;51.220;5.308;2022-09-09T21:10:36;15.80;99.90
41481;DHT22;27217;51.220;5.308;2022-09-09T21:13:01;16.00;99.90
41481;DHT22;27217;51.220;5.308;2022-09-09T21:15:28;16.00;99.90
41481;DHT22;27217;51.220;5.308;2022-09-09T21:17:53;16.10;99.90
41481;DHT22;27217;51.220;5.308;2022-09-09T21:20:19;16.10;99.90
41481;DHT22;27217;51.220;5.308;2022-09-09T21:22:45;16.00;99.90
41481;DHT22;27217;51.220;5.308;2022-09-09T21:25:12;16.20;99.90
41481;DHT22;27217;51.220;5.308;2022-09-09T21:27:37;16.10;99.90
41481;DHT22;27217;51.220;5.308;2022-09-09T21:30:04;16.30;99.90
41481;DHT22;27217;51.220;5.308;2022-09-09T21:32:29;16.10;99.90
41481;DHT22;27217;51.220;5.308;2022-09-09T21:34:55;15.90;99.90
41481;DHT22;27217;51.220;5.308;2022-09-09T21:37:21;15.80;99.90
41481;DHT22;27217;51.220;5.308;2022-09-09T21:39:47;15.80;99.90
41481;DHT22;27217;51.220;5.308;2022-09-09T21:42:13;15.80;99.90
41481;DHT22;27217;51.220;5.308;2022-09-09T21:44:39;15.80;99.90
41481;DHT22;27217;51.220;5.308;2022-09-09T21:47:05;15.90;99.90
41481;DHT22;27217;51.220;5.308;2022-09-09T21:49:31;15.70;99.90
41481;DHT22;27217;51.220;5.308;2022-09-09T21:51:57;15.70;99.90
41481;DHT22;27217;51.220;5.308;2022-09-09T21:54:23;15.40;99.90
41481;DHT22;27217;51.220;5.308;2022-09-09T21:56:54;15.10;99.90
41481;DHT22;27217;51.220;5.308;2022-09-09T21:59:20;15.10;99.90
41481;DHT22;27217;51.220;5.308;2022-09-09T22:01:46;15.20;99.90
41481;DHT22;27217;51.220;5.308;2022-09-09T22:04:12;15.10;99.90
41481;DHT22;27217;51.220;5.308;2022-09-09T22:06:39;15.20;99.90
41481;DHT22;27217;51.220;5.308;2022-09-09T22:09:05;15.10;99.90
41481;DHT22;27217;51.220;5.308;2022-09-09T22:11:30;15.30;99.90
41481;DHT22;27217;51.220;5.308;2022-09-09T22:13:57;15.20;99.90
41481;DHT22;27217;51.220;5.308;2022-09-09T22:16:23;14.90;99.90
41481;DHT22;27217;51.220;5.308;2022-09-09T22:18:55;15.10;99.90
41481;DHT22;27217;51.220;5.308;2022-09-09T22:21:21;15.10;99.90
41481;DHT22;27217;51.220;5.308;2022-09-09T22:23:55;15.20;99.90
41481;DHT22;27217;51.220;5.308;2022-09-09T22:26:23;15.20;99.90
41481;DHT22;27217;51.220;5.308;2022-09-09T22:28:49;15.00;99.90
41481;DHT22;27217;51.220;5.308;2022-09-09T22:31:21;14.90;99.90
41481;DHT22;27217;51.220;5.308;2022-09-09T22:33:47;15.00;99.90
41481;DHT22;27217;51.220;5.308;2022-09-09T22:36:13;14.80;99.90
41481;DHT22;27217;51.220;5.308;2022-09-09T22:38:39;14.90;99.90
41481;DHT22;27217;51.220;5.308;2022-09-09T22:41:05;15.10;99.90
41481;DHT22;27217;51.220;5.308;2022-09-09T22:43:32;15.00;99.90
41481;DHT22;27217;51.220;5.308;2022-09-09T22:45:59;14.90;99.90
41481;DHT22;27217;51.220;5.308;2022-09-09T22:48:25;15.00;99.90
41481;DHT22;27217;51.220;5.308;2022-09-09T22:50:51;14.90;99.90
41481;DHT22;27217;51.220;5.308;2022-09-09T22:53:18;14.80;99.90
41481;DHT22;27217;51.220;5.308;2022-09-09T22:55:55;14.70;99.90
41481;DHT22;27217;51.220;5.308;2022-09-09T22:58:24;14.80;99.90
41481;DHT22;27217;51.220;5.308;2022-09-09T23:00:51;14.60;99.90
41481;DHT22;27217;51.220;5.308;2022-09-09T23:03:17;14.70;99.90
41481;DHT22;27217;51.220;5.308;2022-09-09T23:05:57;14.90;99.90
41481;DHT22;27217;51.220;5.308;2022-09-09T23:08:32;15.00;99.90
41481;DHT22;27217;51.220;5.308;2022-09-09T23:11:09;14.90;99.90
41481;DHT22;27217;51.220;5.308;2022-09-09T23:13:39;14.90;99.90
41481;DHT22;27217;51.220;5.308;2022-09-09T23:16:16;14.80;99.90
41481;DHT22;27217;51.220;5.308;2022-09-09T23:18:42;15.00;99.90
41481;DHT22;27217;51.220;5.308;2022-09-09T23:21:09;14.80;99.90
41481;DHT22;27217;51.220;5.308;2022-09-09T23:23:36;14.80;99.90
41481;DHT22;27217;51.220;5.308;2022-09-09T23:26:04;14.80;99.90
41481;DHT22;27217;51.220;5.308;2022-09-09T23:28:34;14.80;99.90
41481;DHT22;27217;51.220;5.308;2022-09-09T23:31:01;14.80;99.90
41481;DHT22;27217;51.220;5.308;2022-09-09T23:33:28;15.00;99.90
41481;DHT22;27217;51.220;5.308;2022-09-09T23:35:59;15.10;99.90
41481;DHT22;27217;51.220;5.308;2022-09-09T23:38:26;15.00;99.90
41481;DHT22;27217;51.220;5.308;2022-09-09T23:40:53;15.30;99.90
41481;DHT22;27217;51.220;5.308;2022-09-09T23:43:19;15.20;99.90
41481;DHT22;27217;51.220;5.308;2022-09-09T23:45:51;15.10;99.90
41481;DHT22;27217;51.220;5.308;2022-09-09T23:48:17;15.10;99.90
41481;DHT22;27217;51.220;5.308;2022-09-09T23:50:43;15.20;99.90
41481;DHT22;27217;51.220;5.308;2022-09-09T23:53:10;15.30;99.90
41481;DHT22;27217;51.220;5.308;2022-09-09T23:55:37;15.10;99.90
41481;DHT22;27217;51.220;5.308;2022-09-09T23:58:04;15.20;99.90
